Portada
METAR-TAF:

METAR-TAF

Aeroports :

São Paulo-Congonhas, São Paulo, Brasil

latitud: 23-37S, longitud: 046-39W, altitud: 803 m

Observació

L'informe es va fer fa 10 minuts, a les 15:00 UTC
Vent 7 kt del Nord-Est, variant entre Nord i Est/Nord-Est
Temperatura 20°C
Humitat 53%
Pressió 1025 hPa
Visibilitat 10 km o més
sense núvols per sota de 1500 mi sense presència de cumulonimbus.

METAR: SBSP 211500Z 04007KT 350V070 CAVOK 20/10 Q1025

Hora: 12:10 (15:10 UTC)

Pronòstic

L'informe es va fer fa 5 hores i 3 minuts, a les 10:07 UTC
Pronòstic vàlid del 21 a les 12 UTC al 21 a les 24 UTC
Vent 5 kt del Nord-Est
Visibilitat 10 km o més
sense núvols per sota de 1500 mi sense presència de cumulonimbus.

TAF: SBSP 211007Z 2112/2124 05005KT CAVOK TN13/2112Z TX24/2118Z RMK PGN

Observacions i pronòstics meteorològics de més de 4000 aeroports (METAR i TAF).

Les estacions disponibles són els punts grocs i vermells al mapa.

Posi el ratolí al punt desitjat per veure el nom de l'estació.

Feu clic per veure les observacions i els pronòstics meteorològics.

Per canviar el mapa: feu clic els botons verds amb una creu de color negre per apropar; al botó verd amb un guió per allunyar la imatge; o en les fletxes verdes per a mapes adjacents.


METAR-TAF: